sensor_id;sensor_type;location;lat;lon;timestamp;P1;durP1;ratioP1;P2;durP2;ratioP2
76336;SDS011;65157;50.082;18.178;2023-05-07T00:01:14;11.30;;;7.80;;
76336;SDS011;65157;50.082;18.178;2023-05-07T00:03:41;11.20;;;7.40;;
76336;SDS011;65157;50.082;18.178;2023-05-07T00:06:07;11.20;;;8.10;;
76336;SDS011;65157;50.082;18.178;2023-05-07T00:08:34;12.70;;;8.90;;
76336;SDS011;65157;50.082;18.178;2023-05-07T00:11:01;10.00;;;7.90;;
76336;SDS011;65157;50.082;18.178;2023-05-07T00:13:27;11.00;;;8.10;;
76336;SDS011;65157;50.082;18.178;2023-05-07T00:15:54;14.80;;;8.90;;
76336;SDS011;65157;50.082;18.178;2023-05-07T00:18:21;15.80;;;10.30;;
76336;SDS011;65157;50.082;18.178;2023-05-07T00:20:47;15.00;;;9.10;;
76336;SDS011;65157;50.082;18.178;2023-05-07T00:23:14;12.80;;;9.50;;
76336;SDS011;65157;50.082;18.178;2023-05-07T00:25:41;10.50;;;7.90;;
76336;SDS011;65157;50.082;18.178;2023-05-07T00:28:07;11.30;;;8.50;;
76336;SDS011;65157;50.082;18.178;2023-05-07T00:30:34;13.60;;;9.10;;
76336;SDS011;65157;50.082;18.178;2023-05-07T00:33:01;14.30;;;9.00;;
76336;SDS011;65157;50.082;18.178;2023-05-07T00:35:30;13.30;;;9.20;;
76336;SDS011;65157;50.082;18.178;2023-05-07T00:37:57;13.80;;;9.30;;
76336;SDS011;65157;50.082;18.178;2023-05-07T00:40:24;12.40;;;9.10;;
76336;SDS011;65157;50.082;18.178;2023-05-07T00:42:51;13.60;;;9.10;;
76336;SDS011;65157;50.082;18.178;2023-05-07T00:45:17;12.90;;;8.80;;
76336;SDS011;65157;50.082;18.178;2023-05-07T00:47:44;13.10;;;9.00;;
76336;SDS011;65157;50.082;18.178;2023-05-07T00:50:11;12.80;;;9.00;;
76336;SDS011;65157;50.082;18.178;2023-05-07T00:52:37;14.30;;;9.30;;
76336;SDS011;65157;50.082;18.178;2023-05-07T00:55:05;14.20;;;8.90;;
76336;SDS011;65157;50.082;18.178;2023-05-07T00:57:34;13.00;;;8.80;;
76336;SDS011;65157;50.082;18.178;2023-05-07T01:00:03;13.10;;;9.80;;
76336;SDS011;65157;50.082;18.178;2023-05-07T01:02:31;14.00;;;9.60;;
76336;SDS011;65157;50.082;18.178;2023-05-07T01:04:57;14.10;;;9.20;;
76336;SDS011;65157;50.082;18.178;2023-05-07T01:07:24;12.20;;;9.40;;
76336;SDS011;65157;50.082;18.178;2023-05-07T01:09:51;14.80;;;9.30;;
76336;SDS011;65157;50.082;18.178;2023-05-07T01:14:45;12.50;;;8.20;;
76336;SDS011;65157;50.082;18.178;2023-05-07T01:17:12;13.40;;;8.30;;
76336;SDS011;65157;50.082;18.178;2023-05-07T01:19:38;12.50;;;9.00;;
76336;SDS011;65157;50.082;18.178;2023-05-07T01:22:09;13.50;;;9.00;;
76336;SDS011;65157;50.082;18.178;2023-05-07T01:24:37;12.80;;;9.30;;
76336;SDS011;65157;50.082;18.178;2023-05-07T01:27:04;13.30;;;9.10;;
76336;SDS011;65157;50.082;18.178;2023-05-07T01:29:31;14.00;;;8.60;;
76336;SDS011;65157;50.082;18.178;2023-05-07T01:31:58;12.90;;;8.30;;
76336;SDS011;65157;50.082;18.178;2023-05-07T01:34:27;14.80;;;9.20;;
76336;SDS011;65157;50.082;18.178;2023-05-07T01:36:56;11.60;;;8.90;;
76336;SDS011;65157;50.082;18.178;2023-05-07T01:39:25;12.30;;;9.00;;
76336;SDS011;65157;50.082;18.178;2023-05-07T01:41:54;11.60;;;8.10;;
76336;SDS011;65157;50.082;18.178;2023-05-07T01:44:22;11.30;;;8.20;;
76336;SDS011;65157;50.082;18.178;2023-05-07T01:46:50;11.50;;;8.50;;
76336;SDS011;65157;50.082;18.178;2023-05-07T01:49:17;12.00;;;8.20;;
76336;SDS011;65157;50.082;18.178;2023-05-07T01:51:44;12.10;;;8.90;;
76336;SDS011;65157;50.082;18.178;2023-05-07T01:56:37;13.80;;;9.00;;
76336;SDS011;65157;50.082;18.178;2023-05-07T01:59:04;12.80;;;8.00;;
76336;SDS011;65157;50.082;18.178;2023-05-07T02:01:31;11.40;;;8.20;;
76336;SDS011;65157;50.082;18.178;2023-05-07T02:04:00;11.30;;;8.10;;
76336;SDS011;65157;50.082;18.178;2023-05-07T02:06:26;12.20;;;8.20;;
76336;SDS011;65157;50.082;18.178;2023-05-07T02:08:53;11.50;;;8.60;;
76336;SDS011;65157;50.082;18.178;2023-05-07T02:11:20;10.50;;;7.60;;
76336;SDS011;65157;50.082;18.178;2023-05-07T02:13:48;11.90;;;8.30;;
76336;SDS011;65157;50.082;18.178;2023-05-07T02:16:15;13.90;;;8.70;;
76336;SDS011;65157;50.082;18.178;2023-05-07T02:18:42;11.40;;;8.40;;
76336;SDS011;65157;50.082;18.178;2023-05-07T02:21:09;12.50;;;8.30;;
76336;SDS011;65157;50.082;18.178;2023-05-07T02:23:35;10.50;;;7.80;;
76336;SDS011;65157;50.082;18.178;2023-05-07T02:26:03;13.00;;;7.80;;
76336;SDS011;65157;50.082;18.178;2023-05-07T02:28:30;12.10;;;8.20;;
76336;SDS011;65157;50.082;18.178;2023-05-07T02:30:57;13.80;;;9.20;;
76336;SDS011;65157;50.082;18.178;2023-05-07T02:33:24;16.00;;;8.40;;
76336;SDS011;65157;50.082;18.178;2023-05-07T02:35:50;13.50;;;8.10;;
76336;SDS011;65157;50.082;18.178;2023-05-07T02:38:17;11.80;;;7.50;;
76336;SDS011;65157;50.082;18.178;2023-05-07T02:40:44;14.30;;;7.80;;
76336;SDS011;65157;50.082;18.178;2023-05-07T02:43:10;13.40;;;8.50;;
76336;SDS011;65157;50.082;18.178;2023-05-07T02:45:37;17.00;;;9.10;;
76336;SDS011;65157;50.082;18.178;2023-05-07T02:48:04;17.30;;;10.30;;
76336;SDS011;65157;50.082;18.178;2023-05-07T02:50:31;17.80;;;10.00;;
76336;SDS011;65157;50.082;18.178;2023-05-07T02:52:58;18.40;;;9.60;;
76336;SDS011;65157;50.082;18.178;2023-05-07T02:55:25;19.60;;;10.60;;
76336;SDS011;65157;50.082;18.178;2023-05-07T02:57:51;16.70;;;9.70;;
76336;SDS011;65157;50.082;18.178;2023-05-07T03:00:18;17.00;;;9.10;;
76336;SDS011;65157;50.082;18.178;2023-05-07T03:02:46;21.80;;;10.70;;
76336;SDS011;65157;50.082;18.178;2023-05-07T03:05:12;20.10;;;10.40;;
76336;SDS011;65157;50.082;18.178;2023-05-07T03:07:39;19.00;;;10.20;;
76336;SDS011;65157;50.082;18.178;2023-05-07T03:10:06;17.80;;;9.70;;
76336;SDS011;65157;50.082;18.178;2023-05-07T03:12:33;17.90;;;10.20;;
76336;SDS011;65157;50.082;18.178;2023-05-07T03:15:00;17.00;;;10.40;;
76336;SDS011;65157;50.082;18.178;2023-05-07T03:19:53;17.20;;;8.90;;
76336;SDS011;65157;50.082;18.178;2023-05-07T03:22:20;12.10;;;7.80;;
76336;SDS011;65157;50.082;18.178;2023-05-07T03:24:46;13.40;;;7.80;;
76336;SDS011;65157;50.082;18.178;2023-05-07T03:27:13;14.30;;;8.20;;
76336;SDS011;65157;50.082;18.178;2023-05-07T03:29:40;14.20;;;7.20;;
76336;SDS011;65157;50.082;18.178;2023-05-07T03:32:06;18.30;;;7.80;;
76336;SDS011;65157;50.082;18.178;2023-05-07T03:34:33;14.40;;;7.50;;
76336;SDS011;65157;50.082;18.178;2023-05-07T03:37:00;14.40;;;8.30;;
76336;SDS011;65157;50.082;18.178;2023-05-07T03:39:26;13.80;;;7.20;;
76336;SDS011;65157;50.082;18.178;2023-05-07T03:41:53;13.70;;;7.60;;
76336;SDS011;65157;50.082;18.178;2023-05-07T03:44:20;12.80;;;6.90;;
76336;SDS011;65157;50.082;18.178;2023-05-07T03:49:14;10.30;;;6.50;;
76336;SDS011;65157;50.082;18.178;2023-05-07T03:51:40;11.10;;;5.90;;
76336;SDS011;65157;50.082;18.178;2023-05-07T03:54:07;9.70;;;5.90;;
76336;SDS011;65157;50.082;18.178;2023-05-07T03:56:34;8.30;;;4.90;;
76336;SDS011;65157;50.082;18.178;2023-05-07T03:59:01;9.20;;;5.40;;
76336;SDS011;65157;50.082;18.178;2023-05-07T04:01:28;7.90;;;5.40;;
76336;SDS011;65157;50.082;18.178;2023-05-07T04:03:55;9.30;;;5.60;;
76336;SDS011;65157;50.082;18.178;2023-05-07T04:06:22;11.10;;;5.90;;
76336;SDS011;65157;50.082;18.178;2023-05-07T04:08:49;10.00;;;5.80;;
76336;SDS011;65157;50.082;18.178;2023-05-07T04:11:17;9.40;;;5.50;;
76336;SDS011;65157;50.082;18.178;2023-05-07T04:13:44;10.50;;;6.80;;
76336;SDS011;65157;50.082;18.178;2023-05-07T04:16:11;10.20;;;5.70;;
76336;SDS011;65157;50.082;18.178;2023-05-07T04:18:37;10.70;;;6.40;;
76336;SDS011;65157;50.082;18.178;2023-05-07T04:21:05;12.30;;;6.20;;
76336;SDS011;65157;50.082;18.178;2023-05-07T04:23:32;11.80;;;6.30;;
76336;SDS011;65157;50.082;18.178;2023-05-07T04:26:00;9.80;;;5.90;;
76336;SDS011;65157;50.082;18.178;2023-05-07T04:28:27;9.90;;;6.40;;
76336;SDS011;65157;50.082;18.178;2023-05-07T04:30:54;8.70;;;5.40;;
76336;SDS011;65157;50.082;18.178;2023-05-07T04:33:20;9.50;;;6.30;;
76336;SDS011;65157;50.082;18.178;2023-05-07T04:35:47;10.20;;;6.40;;
76336;SDS011;65157;50.082;18.178;2023-05-07T04:38:14;11.00;;;6.40;;
76336;SDS011;65157;50.082;18.178;2023-05-07T04:40:41;9.00;;;5.10;;
76336;SDS011;65157;50.082;18.178;2023-05-07T04:43:07;9.00;;;6.00;;
76336;SDS011;65157;50.082;18.178;2023-05-07T04:45:34;8.70;;;5.80;;
76336;SDS011;65157;50.082;18.178;2023-05-07T04:48:02;8.70;;;5.20;;
76336;SDS011;65157;50.082;18.178;2023-05-07T04:50:28;9.80;;;5.20;;
76336;SDS011;65157;50.082;18.178;2023-05-07T04:52:55;10.40;;;6.30;;
76336;SDS011;65157;50.082;18.178;2023-05-07T04:55:22;9.40;;;5.60;;
76336;SDS011;65157;50.082;18.178;2023-05-07T04:57:54;9.10;;;5.60;;
76336;SDS011;65157;50.082;18.178;2023-05-07T05:00:21;11.30;;;5.70;;
76336;SDS011;65157;50.082;18.178;2023-05-07T05:02:47;9.00;;;5.70;;
76336;SDS011;65157;50.082;18.178;2023-05-07T05:05:14;9.10;;;5.30;;
76336;SDS011;65157;50.082;18.178;2023-05-07T05:07:41;9.80;;;5.70;;
76336;SDS011;65157;50.082;18.178;2023-05-07T05:10:07;9.10;;;5.40;;
76336;SDS011;65157;50.082;18.178;2023-05-07T05:12:34;10.20;;;5.10;;
76336;SDS011;65157;50.082;18.178;2023-05-07T05:15:01;8.90;;;5.10;;
76336;SDS011;65157;50.082;18.178;2023-05-07T05:17:28;7.70;;;4.60;;
76336;SDS011;65157;50.082;18.178;2023-05-07T05:19:54;7.00;;;4.20;;
76336;SDS011;65157;50.082;18.178;2023-05-07T05:24:48;7.40;;;4.60;;
76336;SDS011;65157;50.082;18.178;2023-05-07T05:27:15;7.70;;;4.40;;
76336;SDS011;65157;50.082;18.178;2023-05-07T05:29:41;7.30;;;4.40;;
76336;SDS011;65157;50.082;18.178;2023-05-07T05:32:08;9.10;;;4.80;;
76336;SDS011;65157;50.082;18.178;2023-05-07T05:34:35;6.80;;;4.40;;
76336;SDS011;65157;50.082;18.178;2023-05-07T05:37:01;6.90;;;4.00;;
76336;SDS011;65157;50.082;18.178;2023-05-07T05:39:28;7.40;;;4.40;;
76336;SDS011;65157;50.082;18.178;2023-05-07T05:41:55;7.70;;;4.60;;
76336;SDS011;65157;50.082;18.178;2023-05-07T05:44:22;9.20;;;6.10;;
76336;SDS011;65157;50.082;18.178;2023-05-07T05:46:48;8.40;;;5.20;;
76336;SDS011;65157;50.082;18.178;2023-05-07T05:49:15;8.10;;;5.80;;
76336;SDS011;65157;50.082;18.178;2023-05-07T05:51:43;8.40;;;5.80;;
76336;SDS011;65157;50.082;18.178;2023-05-07T05:54:09;9.90;;;5.90;;
76336;SDS011;65157;50.082;18.178;2023-05-07T05:56:36;10.60;;;6.50;;
76336;SDS011;65157;50.082;18.178;2023-05-07T05:59:03;11.50;;;6.50;;
76336;SDS011;65157;50.082;18.178;2023-05-07T06:01:30;12.10;;;7.50;;
76336;SDS011;65157;50.082;18.178;2023-05-07T06:03:57;11.10;;;7.00;;
76336;SDS011;65157;50.082;18.178;2023-05-07T06:06:23;9.60;;;7.00;;
76336;SDS011;65157;50.082;18.178;2023-05-07T06:08:50;10.10;;;6.70;;
76336;SDS011;65157;50.082;18.178;2023-05-07T06:11:17;9.40;;;7.00;;
76336;SDS011;65157;50.082;18.178;2023-05-07T06:13:43;8.50;;;6.50;;
76336;SDS011;65157;50.082;18.178;2023-05-07T06:16:10;7.10;;;5.30;;
76336;SDS011;65157;50.082;18.178;2023-05-07T06:18:37;6.80;;;5.10;;
76336;SDS011;65157;50.082;18.178;2023-05-07T06:21:04;6.60;;;4.80;;
76336;SDS011;65157;50.082;18.178;2023-05-07T06:23:30;7.30;;;4.30;;
76336;SDS011;65157;50.082;18.178;2023-05-07T06:26:00;5.90;;;4.50;;
76336;SDS011;65157;50.082;18.178;2023-05-07T06:28:26;5.60;;;4.40;;
76336;SDS011;65157;50.082;18.178;2023-05-07T06:30:53;7.60;;;4.60;;
76336;SDS011;65157;50.082;18.178;2023-05-07T06:33:20;8.50;;;4.40;;
76336;SDS011;65157;50.082;18.178;2023-05-07T06:35:46;6.00;;;4.10;;
76336;SDS011;65157;50.082;18.178;2023-05-07T06:38:13;5.90;;;4.20;;
76336;SDS011;65157;50.082;18.178;2023-05-07T06:40:40;6.90;;;4.00;;
76336;SDS011;65157;50.082;18.178;2023-05-07T06:43:07;5.80;;;3.90;;
76336;SDS011;65157;50.082;18.178;2023-05-07T06:45:33;5.70;;;4.10;;
76336;SDS011;65157;50.082;18.178;2023-05-07T06:48:00;7.00;;;4.10;;
76336;SDS011;65157;50.082;18.178;2023-05-07T06:50:27;5.10;;;3.70;;
76336;SDS011;65157;50.082;18.178;2023-05-07T06:52:53;4.90;;;3.50;;
76336;SDS011;65157;50.082;18.178;2023-05-07T06:55:20;4.40;;;3.50;;
76336;SDS011;65157;50.082;18.178;2023-05-07T06:57:47;4.90;;;3.20;;
76336;SDS011;65157;50.082;18.178;2023-05-07T07:00:13;6.20;;;4.00;;
76336;SDS011;65157;50.082;18.178;2023-05-07T07:02:43;4.20;;;3.20;;
76336;SDS011;65157;50.082;18.178;2023-05-07T07:05:10;4.40;;;3.20;;
76336;SDS011;65157;50.082;18.178;2023-05-07T07:07:37;5.70;;;3.40;;
76336;SDS011;65157;50.082;18.178;2023-05-07T07:10:04;4.70;;;2.90;;
76336;SDS011;65157;50.082;18.178;2023-05-07T07:12:31;6.30;;;3.40;;
76336;SDS011;65157;50.082;18.178;2023-05-07T07:14:58;4.10;;;3.10;;
76336;SDS011;65157;50.082;18.178;2023-05-07T07:17:25;5.10;;;4.00;;
76336;SDS011;65157;50.082;18.178;2023-05-07T07:19:51;4.90;;;3.70;;
76336;SDS011;65157;50.082;18.178;2023-05-07T07:22:18;6.40;;;3.50;;
76336;SDS011;65157;50.082;18.178;2023-05-07T07:24:44;4.40;;;3.40;;
76336;SDS011;65157;50.082;18.178;2023-05-07T07:27:12;4.30;;;3.70;;
76336;SDS011;65157;50.082;18.178;2023-05-07T07:29:39;4.30;;;3.40;;
76336;SDS011;65157;50.082;18.178;2023-05-07T07:32:06;5.20;;;3.30;;
76336;SDS011;65157;50.082;18.178;2023-05-07T07:34:33;4.60;;;2.90;;
76336;SDS011;65157;50.082;18.178;2023-05-07T07:36:59;4.20;;;2.90;;
76336;SDS011;65157;50.082;18.178;2023-05-07T07:39:26;4.20;;;3.20;;
76336;SDS011;65157;50.082;18.178;2023-05-07T07:41:53;3.80;;;3.00;;
76336;SDS011;65157;50.082;18.178;2023-05-07T07:44:19;4.10;;;2.80;;
76336;SDS011;65157;50.082;18.178;2023-05-07T07:49:13;3.50;;;2.50;;
76336;SDS011;65157;50.082;18.178;2023-05-07T07:51:40;3.60;;;3.10;;
76336;SDS011;65157;50.082;18.178;2023-05-07T07:54:07;3.10;;;2.70;;
76336;SDS011;65157;50.082;18.178;2023-05-07T07:56:34;3.90;;;3.00;;
76336;SDS011;65157;50.082;18.178;2023-05-07T07:59:02;3.20;;;2.70;;
76336;SDS011;65157;50.082;18.178;2023-05-07T08:01:29;4.30;;;2.70;;
76336;SDS011;65157;50.082;18.178;2023-05-07T08:03:56;3.60;;;2.90;;
76336;SDS011;65157;50.082;18.178;2023-05-07T08:06:24;3.40;;;2.50;;
76336;SDS011;65157;50.082;18.178;2023-05-07T08:08:51;3.30;;;2.60;;
76336;SDS011;65157;50.082;18.178;2023-05-07T08:13:45;2.60;;;2.40;;
76336;SDS011;65157;50.082;18.178;2023-05-07T08:16:12;4.20;;;2.50;;
76336;SDS011;65157;50.082;18.178;2023-05-07T08:18:39;3.00;;;2.20;;
76336;SDS011;65157;50.082;18.178;2023-05-07T08:21:08;3.20;;;2.60;;
76336;SDS011;65157;50.082;18.178;2023-05-07T08:23:34;2.40;;;2.20;;
76336;SDS011;65157;50.082;18.178;2023-05-07T08:26:01;2.50;;;2.20;;
76336;SDS011;65157;50.082;18.178;2023-05-07T08:30:55;2.20;;;2.00;;
76336;SDS011;65157;50.082;18.178;2023-05-07T08:33:22;2.70;;;2.40;;
76336;SDS011;65157;50.082;18.178;2023-05-07T08:35:49;2.90;;;2.60;;
76336;SDS011;65157;50.082;18.178;2023-05-07T08:38:15;4.70;;;3.00;;
76336;SDS011;65157;50.082;18.178;2023-05-07T08:40:42;5.50;;;2.70;;
76336;SDS011;65157;50.082;18.178;2023-05-07T08:43:12;2.70;;;2.10;;
76336;SDS011;65157;50.082;18.178;2023-05-07T08:45:40;4.70;;;2.90;;
76336;SDS011;65157;50.082;18.178;2023-05-07T08:48:14;4.30;;;2.70;;
76336;SDS011;65157;50.082;18.178;2023-05-07T08:50:42;5.50;;;3.20;;
76336;SDS011;65157;50.082;18.178;2023-05-07T08:53:09;2.80;;;2.10;;
76336;SDS011;65157;50.082;18.178;2023-05-07T08:55:35;5.20;;;2.70;;
76336;SDS011;65157;50.082;18.178;2023-05-07T08:58:03;4.70;;;3.20;;
76336;SDS011;65157;50.082;18.178;2023-05-07T09:00:29;4.60;;;3.00;;
76336;SDS011;65157;50.082;18.178;2023-05-07T09:02:56;4.60;;;3.00;;
76336;SDS011;65157;50.082;18.178;2023-05-07T09:05:23;3.00;;;2.30;;
76336;SDS011;65157;50.082;18.178;2023-05-07T09:07:50;2.70;;;2.20;;
76336;SDS011;65157;50.082;18.178;2023-05-07T09:10:16;2.30;;;2.00;;
76336;SDS011;65157;50.082;18.178;2023-05-07T09:12:43;2.30;;;2.00;;
76336;SDS011;65157;50.082;18.178;2023-05-07T09:15:10;2.70;;;2.00;;
76336;SDS011;65157;50.082;18.178;2023-05-07T09:17:36;2.30;;;1.70;;
76336;SDS011;65157;50.082;18.178;2023-05-07T09:20:04;2.10;;;1.70;;
76336;SDS011;65157;50.082;18.178;2023-05-07T09:22:36;2.70;;;2.30;;
76336;SDS011;65157;50.082;18.178;2023-05-07T09:25:04;2.90;;;1.80;;
76336;SDS011;65157;50.082;18.178;2023-05-07T09:27:32;2.20;;;2.00;;
76336;SDS011;65157;50.082;18.178;2023-05-07T09:30:02;2.20;;;2.00;;
76336;SDS011;65157;50.082;18.178;2023-05-07T09:32:30;1.90;;;1.80;;
76336;SDS011;65157;50.082;18.178;2023-05-07T09:35:01;2.10;;;1.90;;
76336;SDS011;65157;50.082;18.178;2023-05-07T09:37:27;1.90;;;1.80;;
76336;SDS011;65157;50.082;18.178;2023-05-07T09:39:59;1.80;;;1.70;;
76336;SDS011;65157;50.082;18.178;2023-05-07T09:42:25;1.90;;;1.70;;
76336;SDS011;65157;50.082;18.178;2023-05-07T09:44:54;2.60;;;1.80;;
76336;SDS011;65157;50.082;18.178;2023-05-07T09:47:23;1.90;;;1.80;;
76336;SDS011;65157;50.082;18.178;2023-05-07T09:49:50;2.10;;;1.60;;
76336;SDS011;65157;50.082;18.178;2023-05-07T09:52:22;2.00;;;1.80;;
76336;SDS011;65157;50.082;18.178;2023-05-07T09:54:50;2.40;;;1.70;;
76336;SDS011;65157;50.082;18.178;2023-05-07T09:57:19;2.70;;;1.50;;
76336;SDS011;65157;50.082;18.178;2023-05-07T09:59:47;2.20;;;1.60;;
76336;SDS011;65157;50.082;18.178;2023-05-07T10:02:15;1.70;;;1.40;;
76336;SDS011;65157;50.082;18.178;2023-05-07T10:04:44;1.70;;;1.50;;
76336;SDS011;65157;50.082;18.178;2023-05-07T10:07:13;1.70;;;1.60;;
76336;SDS011;65157;50.082;18.178;2023-05-07T10:09:41;1.40;;;1.30;;
76336;SDS011;65157;50.082;18.178;2023-05-07T10:12:08;1.50;;;1.40;;
76336;SDS011;65157;50.082;18.178;2023-05-07T10:17:03;1.30;;;1.20;;
76336;SDS011;65157;50.082;18.178;2023-05-07T10:19:30;1.90;;;1.60;;
76336;SDS011;65157;50.082;18.178;2023-05-07T10:21:59;1.50;;;1.40;;
76336;SDS011;65157;50.082;18.178;2023-05-07T10:24:34;2.30;;;2.00;;
76336;SDS011;65157;50.082;18.178;2023-05-07T10:27:03;2.00;;;1.80;;
76336;SDS011;65157;50.082;18.178;2023-05-07T10:29:37;3.20;;;2.00;;
76336;SDS011;65157;50.082;18.178;2023-05-07T10:32:14;1.90;;;1.80;;
76336;SDS011;65157;50.082;18.178;2023-05-07T10:34:56;2.60;;;2.10;;
76336;SDS011;65157;50.082;18.178;2023-05-07T10:37:26;2.20;;;2.00;;
76336;SDS011;65157;50.082;18.178;2023-05-07T10:39:55;2.20;;;2.00;;
76336;SDS011;65157;50.082;18.178;2023-05-07T10:44:48;3.00;;;2.00;;
76336;SDS011;65157;50.082;18.178;2023-05-07T10:47:16;2.00;;;1.90;;
76336;SDS011;65157;50.082;18.178;2023-05-07T10:52:14;2.60;;;2.00;;
76336;SDS011;65157;50.082;18.178;2023-05-07T10:54:45;3.20;;;1.70;;
76336;SDS011;65157;50.082;18.178;2023-05-07T10:59:58;2.20;;;2.00;;
76336;SDS011;65157;50.082;18.178;2023-05-07T11:03:04;2.20;;;2.00;;
76336;SDS011;65157;50.082;18.178;2023-05-07T11:07:59;2.70;;;2.50;;
76336;SDS011;65157;50.082;18.178;2023-05-07T11:13:16;2.00;;;1.90;;
76336;SDS011;65157;50.082;18.178;2023-05-07T11:15:44;2.70;;;2.50;;
76336;SDS011;65157;50.082;18.178;2023-05-07T11:18:13;2.70;;;2.40;;
76336;SDS011;65157;50.082;18.178;2023-05-07T11:20:49;2.60;;;2.40;;
76336;SDS011;65157;50.082;18.178;2023-05-07T11:26:05;2.70;;;2.50;;
76336;SDS011;65157;50.082;18.178;2023-05-07T11:28:39;2.70;;;2.20;;
76336;SDS011;65157;50.082;18.178;2023-05-07T11:31:07;2.80;;;2.40;;
76336;SDS011;65157;50.082;18.178;2023-05-07T11:33:34;4.20;;;3.00;;
76336;SDS011;65157;50.082;18.178;2023-05-07T11:36:03;3.90;;;3.00;;
76336;SDS011;65157;50.082;18.178;2023-05-07T11:38:34;3.10;;;2.80;;
76336;SDS011;65157;50.082;18.178;2023-05-07T11:41:02;3.00;;;2.60;;
76336;SDS011;65157;50.082;18.178;2023-05-07T11:43:29;2.60;;;2.30;;
76336;SDS011;65157;50.082;18.178;2023-05-07T11:46:04;2.60;;;2.40;;
76336;SDS011;65157;50.082;18.178;2023-05-07T11:48:38;2.60;;;2.40;;
76336;SDS011;65157;50.082;18.178;2023-05-07T11:51:06;2.10;;;1.90;;
76336;SDS011;65157;50.082;18.178;2023-05-07T11:53:36;3.00;;;2.40;;
76336;SDS011;65157;50.082;18.178;2023-05-07T11:56:07;2.70;;;2.50;;
76336;SDS011;65157;50.082;18.178;2023-05-07T11:58:35;3.50;;;2.60;;
76336;SDS011;65157;50.082;18.178;2023-05-07T12:01:03;4.70;;;4.00;;
76336;SDS011;65157;50.082;18.178;2023-05-07T12:05:56;4.40;;;3.10;;
76336;SDS011;65157;50.082;18.178;2023-05-07T12:08:23;4.20;;;3.10;;
76336;SDS011;65157;50.082;18.178;2023-05-07T12:10:50;4.00;;;3.00;;
76336;SDS011;65157;50.082;18.178;2023-05-07T12:13:18;3.10;;;2.80;;
76336;SDS011;65157;50.082;18.178;2023-05-07T12:15:52;3.80;;;3.30;;
76336;SDS011;65157;50.082;18.178;2023-05-07T12:18:21;4.40;;;3.40;;
76336;SDS011;65157;50.082;18.178;2023-05-07T12:20:49;3.30;;;2.90;;
76336;SDS011;65157;50.082;18.178;2023-05-07T12:23:16;2.90;;;2.60;;
76336;SDS011;65157;50.082;18.178;2023-05-07T12:25:44;3.80;;;2.60;;
76336;SDS011;65157;50.082;18.178;2023-05-07T12:28:12;3.00;;;2.40;;
76336;SDS011;65157;50.082;18.178;2023-05-07T12:30:40;7.00;;;2.90;;
76336;SDS011;65157;50.082;18.178;2023-05-07T12:33:06;2.40;;;2.20;;
76336;SDS011;65157;50.082;18.178;2023-05-07T12:35:38;2.70;;;2.50;;
76336;SDS011;65157;50.082;18.178;2023-05-07T12:38:07;3.80;;;2.90;;
76336;SDS011;65157;50.082;18.178;2023-05-07T12:40:37;2.90;;;2.50;;
76336;SDS011;65157;50.082;18.178;2023-05-07T12:43:15;3.60;;;3.00;;
76336;SDS011;65157;50.082;18.178;2023-05-07T12:45:43;3.70;;;2.80;;
76336;SDS011;65157;50.082;18.178;2023-05-07T12:48:14;3.40;;;2.90;;
76336;SDS011;65157;50.082;18.178;2023-05-07T12:50:41;4.10;;;3.40;;
76336;SDS011;65157;50.082;18.178;2023-05-07T12:53:10;4.00;;;3.00;;
76336;SDS011;65157;50.082;18.178;2023-05-07T12:55:45;4.40;;;3.90;;
76336;SDS011;65157;50.082;18.178;2023-05-07T12:58:17;4.30;;;3.10;;
76336;SDS011;65157;50.082;18.178;2023-05-07T13:00:50;4.00;;;3.60;;
76336;SDS011;65157;50.082;18.178;2023-05-07T13:03:21;4.50;;;3.80;;
76336;SDS011;65157;50.082;18.178;2023-05-07T13:05:54;3.70;;;2.70;;
76336;SDS011;65157;50.082;18.178;2023-05-07T13:08:30;2.70;;;2.50;;
76336;SDS011;65157;50.082;18.178;2023-05-07T13:10:59;3.20;;;2.90;;
76336;SDS011;65157;50.082;18.178;2023-05-07T13:13:41;3.60;;;2.90;;
76336;SDS011;65157;50.082;18.178;2023-05-07T13:16:09;3.80;;;3.20;;
76336;SDS011;65157;50.082;18.178;2023-05-07T13:18:39;3.90;;;3.50;;
76336;SDS011;65157;50.082;18.178;2023-05-07T13:21:07;4.00;;;3.60;;
76336;SDS011;65157;50.082;18.178;2023-05-07T13:23:33;4.40;;;3.40;;
76336;SDS011;65157;50.082;18.178;2023-05-07T13:26:00;4.00;;;3.60;;
76336;SDS011;65157;50.082;18.178;2023-05-07T13:28:27;3.40;;;3.10;;
76336;SDS011;65157;50.082;18.178;2023-05-07T13:30:54;4.20;;;3.30;;
76336;SDS011;65157;50.082;18.178;2023-05-07T13:33:21;3.30;;;3.00;;
76336;SDS011;65157;50.082;18.178;2023-05-07T13:35:48;3.60;;;3.30;;
76336;SDS011;65157;50.082;18.178;2023-05-07T13:38:14;4.20;;;3.70;;
76336;SDS011;65157;50.082;18.178;2023-05-07T13:40:42;3.70;;;3.40;;
76336;SDS011;65157;50.082;18.178;2023-05-07T13:43:09;4.00;;;3.50;;
76336;SDS011;65157;50.082;18.178;2023-05-07T13:45:35;4.10;;;3.70;;
76336;SDS011;65157;50.082;18.178;2023-05-07T13:48:02;6.10;;;3.00;;
76336;SDS011;65157;50.082;18.178;2023-05-07T13:50:29;4.40;;;3.40;;
76336;SDS011;65157;50.082;18.178;2023-05-07T13:52:56;3.90;;;3.60;;
76336;SDS011;65157;50.082;18.178;2023-05-07T13:55:23;3.50;;;3.20;;
76336;SDS011;65157;50.082;18.178;2023-05-07T13:57:56;4.40;;;3.50;;
76336;SDS011;65157;50.082;18.178;2023-05-07T14:00:25;4.20;;;3.50;;
76336;SDS011;65157;50.082;18.178;2023-05-07T14:02:59;4.50;;;3.30;;
76336;SDS011;65157;50.082;18.178;2023-05-07T14:05:26;6.80;;;4.10;;
76336;SDS011;65157;50.082;18.178;2023-05-07T14:07:53;4.70;;;4.10;;
76336;SDS011;65157;50.082;18.178;2023-05-07T14:10:21;4.30;;;3.90;;
76336;SDS011;65157;50.082;18.178;2023-05-07T14:12:48;4.20;;;3.80;;
76336;SDS011;65157;50.082;18.178;2023-05-07T14:15:15;3.60;;;3.30;;
76336;SDS011;65157;50.082;18.178;2023-05-07T14:17:44;3.90;;;3.10;;
76336;SDS011;65157;50.082;18.178;2023-05-07T14:20:11;3.60;;;3.30;;
76336;SDS011;65157;50.082;18.178;2023-05-07T14:22:38;4.00;;;3.10;;
76336;SDS011;65157;50.082;18.178;2023-05-07T14:25:05;3.40;;;3.10;;
76336;SDS011;65157;50.082;18.178;2023-05-07T14:27:33;4.00;;;2.90;;
76336;SDS011;65157;50.082;18.178;2023-05-07T14:30:00;3.90;;;2.80;;
76336;SDS011;65157;50.082;18.178;2023-05-07T14:32:26;4.20;;;2.40;;
76336;SDS011;65157;50.082;18.178;2023-05-07T14:34:53;5.10;;;3.20;;
76336;SDS011;65157;50.082;18.178;2023-05-07T14:37:20;2.80;;;2.60;;
76336;SDS011;65157;50.082;18.178;2023-05-07T14:39:47;2.50;;;2.30;;
76336;SDS011;65157;50.082;18.178;2023-05-07T14:42:14;2.80;;;2.60;;
76336;SDS011;65157;50.082;18.178;2023-05-07T14:44:40;3.40;;;2.40;;
76336;SDS011;65157;50.082;18.178;2023-05-07T14:47:07;3.10;;;2.70;;
76336;SDS011;65157;50.082;18.178;2023-05-07T14:49:34;3.40;;;3.10;;
76336;SDS011;65157;50.082;18.178;2023-05-07T14:52:03;3.00;;;2.70;;
76336;SDS011;65157;50.082;18.178;2023-05-07T14:54:30;3.70;;;3.00;;
76336;SDS011;65157;50.082;18.178;2023-05-07T14:57:00;3.00;;;2.70;;
76336;SDS011;65157;50.082;18.178;2023-05-07T14:59:29;3.30;;;2.20;;
76336;SDS011;65157;50.082;18.178;2023-05-07T15:01:57;2.90;;;2.70;;
76336;SDS011;65157;50.082;18.178;2023-05-07T15:04:26;3.80;;;2.50;;
76336;SDS011;65157;50.082;18.178;2023-05-07T15:06:53;4.50;;;2.80;;
76336;SDS011;65157;50.082;18.178;2023-05-07T15:09:20;4.10;;;2.50;;
76336;SDS011;65157;50.082;18.178;2023-05-07T15:11:47;2.90;;;2.40;;
76336;SDS011;65157;50.082;18.178;2023-05-07T15:14:14;4.10;;;2.40;;